createdAt,value
2023-03-01T00:01:39.945Z,-0.05
2023-03-01T00:04:07.860Z,-0.06
2023-03-01T00:06:35.715Z,-0.19
2023-03-01T00:09:03.578Z,-0.19
2023-03-01T00:11:33.013Z,-0.18
2023-03-01T00:14:05.801Z,-0.17
2023-03-01T00:16:35.670Z,-0.14
2023-03-01T00:19:04.484Z,-0.15
2023-03-01T00:21:32.256Z,-0.19
2023-03-01T00:24:00.618Z,-0.18
2023-03-01T00:26:28.768Z,-0.22
2023-03-01T00:28:58.668Z,-0.24
2023-03-01T00:31:30.156Z,-0.23
2023-03-01T00:33:59.810Z,-0.26
2023-03-01T00:36:34.055Z,-0.24
2023-03-01T00:39:02.449Z,-0.22
2023-03-01T00:41:30.328Z,-0.28
2023-03-01T00:43:58.335Z,-0.25
2023-03-01T00:46:31.304Z,-0.24
2023-03-01T00:48:59.370Z,-0.34
2023-03-01T00:51:29.154Z,-0.38
2023-03-01T00:53:58.585Z,-0.38
2023-03-01T00:56:27.367Z,-0.35
2023-03-01T00:58:55.132Z,-0.33
2023-03-01T01:01:24.683Z,-0.33
2023-03-01T01:03:56.048Z,-0.34
2023-03-01T01:06:26.034Z,-0.34
2023-03-01T01:08:54.973Z,-0.29
2023-03-01T01:11:23.870Z,-0.33
2023-03-01T01:13:52.027Z,-0.34
2023-03-01T01:16:22.011Z,-0.36
2023-03-01T01:18:49.904Z,-0.41
2023-03-01T01:21:22.080Z,-0.52
2023-03-01T01:23:50.405Z,-0.54
2023-03-01T01:26:20.889Z,-0.52
2023-03-01T01:28:49.169Z,-0.51
2023-03-01T01:31:17.427Z,-0.51
2023-03-01T01:33:45.591Z,-0.49
2023-03-01T01:36:13.754Z,-0.46
2023-03-01T01:38:43.369Z,-0.44
2023-03-01T01:41:12.800Z,-0.41
2023-03-01T01:43:43.277Z,-0.41
2023-03-01T01:46:21.469Z,-0.44
2023-03-01T01:48:54.542Z,-0.42
2023-03-01T01:51:26.196Z,-0.42
2023-03-01T01:53:58.918Z,-0.43
2023-03-01T01:56:31.093Z,-0.41
2023-03-01T01:58:59.578Z,-0.41
2023-03-01T02:01:27.585Z,-0.45
2023-03-01T02:03:55.408Z,-0.46
2023-03-01T02:06:30.392Z,-0.50
2023-03-01T02:09:03.955Z,-0.53
2023-03-01T02:11:33.394Z,-0.61
2023-03-01T02:14:01.564Z,-0.62
2023-03-01T02:16:30.363Z,-0.63
2023-03-01T02:18:59.110Z,-0.64
2023-03-01T02:21:39.324Z,-0.66
2023-03-01T02:24:28.702Z,-0.67
2023-03-01T02:26:59.770Z,-0.68
2023-03-01T02:29:30.278Z,-0.68
2023-03-01T02:32:00.405Z,-0.66
2023-03-01T02:34:30.107Z,-0.67
2023-03-01T02:37:02.046Z,-0.67
2023-03-01T02:39:34.658Z,-0.71
2023-03-01T02:42:04.764Z,-0.72
2023-03-01T02:44:33.943Z,-0.72
2023-03-01T02:47:04.926Z,-0.75
2023-03-01T02:49:35.588Z,-0.75
2023-03-01T02:52:29.308Z,-0.83
2023-03-01T02:55:02.595Z,-0.85
2023-03-01T02:57:33.155Z,-0.85
2023-03-01T03:00:09.126Z,-0.87
2023-03-01T03:02:38.125Z,-0.89
2023-03-01T03:05:09.339Z,-0.88
2023-03-01T03:07:38.568Z,-0.91
2023-03-01T03:10:12.262Z,-0.92
2023-03-01T03:12:40.108Z,-0.97
2023-03-01T03:15:11.096Z,-1.00
2023-03-01T03:17:39.005Z,-0.98
2023-03-01T03:20:11.894Z,-0.97
2023-03-01T03:22:40.446Z,-0.94
2023-03-01T03:25:11.327Z,-0.93
2023-03-01T03:27:39.619Z,-0.92
2023-03-01T03:30:13.282Z,-0.92
2023-03-01T03:32:40.966Z,-0.96
2023-03-01T03:35:11.265Z,-0.94
2023-03-01T03:37:57.429Z,-0.93
2023-03-01T03:40:25.377Z,-0.93
2023-03-01T03:42:53.094Z,-0.96
2023-03-01T03:45:22.210Z,-0.99
2023-03-01T03:47:51.039Z,-0.97
2023-03-01T03:50:20.044Z,-1.00
2023-03-01T03:52:47.810Z,-0.99
2023-03-01T03:55:20.230Z,-1.01
2023-03-01T03:57:52.494Z,-1.02
2023-03-01T04:00:24.810Z,-1.05
2023-03-01T04:02:57.587Z,-1.08
2023-03-01T04:05:25.718Z,-1.11
2023-03-01T04:08:01.957Z,-1.13
2023-03-01T04:10:31.621Z,-1.21
2023-03-01T04:12:59.668Z,-1.21
2023-03-01T04:15:29.476Z,-1.21
2023-03-01T04:17:57.683Z,-1.21
2023-03-01T04:20:29.313Z,-1.20
2023-03-01T04:23:01.096Z,-1.24
2023-03-01T04:25:28.907Z,-1.26
2023-03-01T04:27:56.600Z,-1.25
2023-03-01T04:30:26.335Z,-1.24
2023-03-01T04:32:55.463Z,-1.25
2023-03-01T04:35:23.498Z,-1.28
2023-03-01T04:37:51.909Z,-1.32
2023-03-01T04:40:19.735Z,-1.33
2023-03-01T04:42:48.246Z,-1.33
2023-03-01T04:45:16.099Z,-1.35
2023-03-01T04:47:45.404Z,-1.35
2023-03-01T04:50:17.512Z,-1.34
2023-03-01T04:52:46.931Z,-1.33
2023-03-01T04:55:15.174Z,-1.36
2023-03-01T04:57:43.240Z,-1.37
2023-03-01T05:00:21.910Z,-1.41
2023-03-01T05:02:54.350Z,-1.41
2023-03-01T05:05:30.215Z,-1.42
2023-03-01T05:07:59.317Z,-1.42
2023-03-01T05:10:30.012Z,-1.44
2023-03-01T05:12:58.560Z,-1.47
2023-03-01T05:15:27.699Z,-1.50
2023-03-01T05:17:56.316Z,-1.53
2023-03-01T05:20:25.009Z,-1.55
2023-03-01T05:23:00.524Z,-1.57
2023-03-01T05:25:34.005Z,-1.55
2023-03-01T05:28:05.231Z,-1.54
2023-03-01T05:30:33.731Z,-1.53
2023-03-01T05:33:02.282Z,-1.55
2023-03-01T05:35:33.517Z,-1.55
2023-03-01T05:38:02.687Z,-1.54
2023-03-01T05:40:30.414Z,-1.59
2023-03-01T05:42:58.939Z,-1.66
2023-03-01T05:45:28.787Z,-1.69
2023-03-01T05:47:56.522Z,-1.67
2023-03-01T05:50:26.292Z,-1.66
2023-03-01T05:52:59.037Z,-1.65
2023-03-01T05:55:29.448Z,-1.67
2023-03-01T05:57:57.629Z,-1.70
2023-03-01T06:00:25.565Z,-1.78
2023-03-01T06:02:53.417Z,-1.83
2023-03-01T06:05:21.183Z,-1.81
2023-03-01T06:07:48.964Z,-1.85
2023-03-01T06:10:17.145Z,-1.85
2023-03-01T06:12:46.311Z,-1.86
2023-03-01T06:15:15.159Z,-1.85
2023-03-01T06:17:45.436Z,-1.84
2023-03-01T06:20:15.673Z,-1.83
2023-03-01T06:22:43.642Z,-1.83
2023-03-01T06:25:13.436Z,-1.84
2023-03-01T06:27:41.667Z,-1.85
2023-03-01T06:30:16.898Z,-1.87
2023-03-01T06:32:44.734Z,-1.90
2023-03-01T06:35:14.036Z,-1.89
2023-03-01T06:37:42.561Z,-1.90
2023-03-01T06:40:12.665Z,-1.91
2023-03-01T06:42:41.952Z,-1.91
2023-03-01T06:45:13.160Z,-1.92
2023-03-01T06:47:40.917Z,-1.96
2023-03-01T06:50:09.728Z,-1.97
2023-03-01T06:52:37.704Z,-1.97
2023-03-01T06:55:06.484Z,-1.97
2023-03-01T06:57:34.224Z,-1.97
2023-03-01T07:00:01.951Z,-1.96
2023-03-01T07:02:31.046Z,-2.00
2023-03-01T07:04:58.839Z,-2.00
2023-03-01T07:07:26.662Z,-2.00
2023-03-01T07:09:55.328Z,-1.99
2023-03-01T07:12:23.215Z,-1.98
2023-03-01T07:14:50.954Z,-1.98
2023-03-01T07:17:19.761Z,-1.98
2023-03-01T07:19:48.914Z,-1.95
2023-03-01T07:22:16.744Z,-1.95
2023-03-01T07:24:44.927Z,-1.92
2023-03-01T07:27:13.013Z,-1.93
2023-03-01T07:29:40.776Z,-1.90
2023-03-01T07:32:09.015Z,-1.88
2023-03-01T07:34:36.818Z,-1.84
2023-03-01T07:37:05.949Z,-1.80
2023-03-01T07:39:33.697Z,-1.77
2023-03-01T07:42:01.489Z,-1.73
2023-03-01T07:44:29.464Z,-1.69
2023-03-01T07:46:59.088Z,-1.65
2023-03-01T07:49:27.480Z,-1.60
2023-03-01T07:51:55.416Z,-1.56
2023-03-01T07:54:24.523Z,-1.52
2023-03-01T07:56:52.415Z,-1.45
2023-03-01T07:59:20.162Z,-1.42
2023-03-01T08:01:47.892Z,-1.39
2023-03-01T08:04:15.675Z,-1.35
2023-03-01T08:06:43.384Z,-1.28
2023-03-01T08:09:11.134Z,-1.18
2023-03-01T08:11:40.256Z,-1.09
2023-03-01T08:14:08.465Z,-0.97
2023-03-01T08:16:37.037Z,-0.83
2023-03-01T08:19:06.644Z,-0.64
2023-03-01T08:21:35.731Z,-0.53
2023-03-01T08:24:04.026Z,-0.41
2023-03-01T08:26:32.464Z,-0.31
2023-03-01T08:29:02.070Z,-0.24
2023-03-01T08:31:31.915Z,-0.10
2023-03-01T08:34:02.200Z,0.02
2023-03-01T08:36:32.663Z,0.18
2023-03-01T08:39:00.870Z,0.30
2023-03-01T08:41:28.928Z,0.39
2023-03-01T08:43:59.797Z,0.50
2023-03-01T08:46:30.678Z,0.63
2023-03-01T08:48:58.568Z,0.81
2023-03-01T08:51:27.960Z,0.94
2023-03-01T08:53:55.784Z,1.06
2023-03-01T08:56:23.551Z,1.16
2023-03-01T08:58:51.419Z,1.27
2023-03-01T09:01:20.980Z,1.39
2023-03-01T09:03:50.224Z,1.53
2023-03-01T09:06:18.573Z,1.60
2023-03-01T09:08:50.055Z,1.77
2023-03-01T09:11:20.368Z,1.96
2023-03-01T09:13:49.749Z,2.06
2023-03-01T09:16:20.162Z,2.08
2023-03-01T09:18:53.248Z,2.20
2023-03-01T09:21:38.653Z,2.30
2023-03-01T09:24:09.166Z,2.39
2023-03-01T09:26:36.955Z,2.49
2023-03-01T09:29:04.848Z,2.65
2023-03-01T09:31:32.667Z,2.65
2023-03-01T09:34:01.860Z,2.79
2023-03-01T09:36:30.334Z,2.83
2023-03-01T09:39:00.170Z,2.83
2023-03-01T09:41:45.792Z,3.02
2023-03-01T09:44:22.942Z,3.13
2023-03-01T09:46:51.005Z,3.24
2023-03-01T09:49:23.315Z,3.41
2023-03-01T09:51:59.410Z,3.41
2023-03-01T09:54:27.256Z,3.53
2023-03-01T09:57:12.591Z,3.69
2023-03-01T09:59:53.854Z,3.71
2023-03-01T10:02:28.926Z,3.80
2023-03-01T10:05:07.527Z,3.92
2023-03-01T10:07:44.863Z,4.03
2023-03-01T10:10:23.304Z,4.10
2023-03-01T10:12:51.580Z,4.22
2023-03-01T10:15:24.353Z,4.24
2023-03-01T10:17:55.194Z,4.30
2023-03-01T10:20:26.231Z,4.35
2023-03-01T10:22:56.222Z,4.41
2023-03-01T10:25:44.112Z,4.43
2023-03-01T10:28:18.677Z,4.53
2023-03-01T10:30:47.527Z,4.65
2023-03-01T10:33:20.813Z,4.72
2023-03-01T10:35:50.456Z,4.77
2023-03-01T10:38:21.384Z,4.82
2023-03-01T10:40:55.581Z,4.92
2023-03-01T10:43:24.179Z,5.00
2023-03-01T10:45:52.578Z,4.99
2023-03-01T10:48:24.642Z,5.00
2023-03-01T10:51:08.471Z,5.07
2023-03-01T10:53:39.076Z,5.15
2023-03-01T10:56:09.882Z,5.23
2023-03-01T10:58:40.467Z,5.30
2023-03-01T11:01:25.861Z,5.34
2023-03-01T11:04:11.955Z,5.37
2023-03-01T11:06:42.800Z,5.43
2023-03-01T11:09:18.213Z,5.43
2023-03-01T11:11:46.882Z,5.52
2023-03-01T11:14:27.552Z,5.60
2023-03-01T11:17:04.103Z,5.58
2023-03-01T11:19:32.208Z,5.59
2023-03-01T11:22:05.488Z,5.68
2023-03-01T11:24:42.453Z,5.80
2023-03-01T11:27:18.853Z,5.81
2023-03-01T11:29:52.113Z,5.83
2023-03-01T11:32:23.363Z,5.82
2023-03-01T11:34:58.639Z,5.82
2023-03-01T11:37:37.080Z,5.93
2023-03-01T11:40:15.308Z,5.95
2023-03-01T11:42:54.164Z,6.11
2023-03-01T11:45:26.770Z,6.21
2023-03-01T11:48:15.882Z,6.25
2023-03-01T11:50:48.210Z,6.38
2023-03-01T11:53:46.083Z,6.26
2023-03-01T11:56:23.858Z,6.31
2023-03-01T11:59:23.903Z,6.46
2023-03-01T12:02:16.525Z,6.58
2023-03-01T12:05:00.245Z,6.54
2023-03-01T12:07:33.589Z,6.57
2023-03-01T12:10:22.754Z,6.67
2023-03-01T12:13:06.700Z,6.69
2023-03-01T12:15:55.058Z,6.68
2023-03-01T12:18:41.958Z,6.71
2023-03-01T12:21:21.406Z,6.82
2023-03-01T12:24:06.853Z,6.83
2023-03-01T12:26:38.188Z,6.90
2023-03-01T12:29:28.087Z,6.94
2023-03-01T12:32:21.493Z,6.97
2023-03-01T12:35:04.981Z,7.02
2023-03-01T12:37:43.783Z,7.18
2023-03-01T12:40:44.261Z,7.06
2023-03-01T12:43:28.912Z,7.14
2023-03-01T12:46:12.697Z,7.09
2023-03-01T12:48:49.935Z,7.10
2023-03-01T12:51:22.706Z,7.19
2023-03-01T12:53:52.870Z,7.15
2023-03-01T12:56:24.824Z,7.20
2023-03-01T12:59:04.460Z,7.19
2023-03-01T13:01:44.334Z,7.22
2023-03-01T13:04:35.384Z,7.15
2023-03-01T13:07:27.047Z,7.27
2023-03-01T13:10:06.566Z,7.43
2023-03-01T13:12:55.032Z,7.44
2023-03-01T13:15:38.358Z,7.39
2023-03-01T13:18:32.025Z,7.57
2023-03-01T13:21:02.457Z,7.47
2023-03-01T13:23:33.911Z,7.52
2023-03-01T13:26:12.844Z,7.50
2023-03-01T13:29:03.330Z,7.45
2023-03-01T13:32:02.630Z,7.42
2023-03-01T13:35:02.628Z,7.31
2023-03-01T13:37:33.762Z,7.14
2023-03-01T13:40:06.614Z,7.21
2023-03-01T13:42:41.605Z,7.35
2023-03-01T13:45:22.847Z,7.34
2023-03-01T13:47:55.800Z,7.30
2023-03-01T13:50:27.141Z,7.33
2023-03-01T13:53:00.161Z,7.28
2023-03-01T13:55:37.576Z,7.23
2023-03-01T13:58:16.826Z,7.18
2023-03-01T14:00:44.760Z,7.18
2023-03-01T14:03:15.890Z,7.23
2023-03-01T14:06:12.843Z,7.26
2023-03-01T14:08:42.460Z,7.29
2023-03-01T14:11:42.598Z,7.29
2023-03-01T14:14:27.993Z,7.28
2023-03-01T14:17:03.099Z,7.26
2023-03-01T14:19:34.137Z,7.35
2023-03-01T14:22:14.567Z,7.25
2023-03-01T14:24:48.705Z,7.20
2023-03-01T14:27:17.196Z,7.17
2023-03-01T14:29:45.465Z,7.11
2023-03-01T14:32:19.868Z,7.10
2023-03-01T14:34:49.730Z,7.06
2023-03-01T14:37:24.995Z,7.07
2023-03-01T14:39:53.347Z,7.07
2023-03-01T14:42:22.805Z,7.03
2023-03-01T14:44:53.696Z,7.10
2023-03-01T14:47:29.160Z,7.14
2023-03-01T14:50:01.541Z,7.02
2023-03-01T14:52:37.084Z,6.97
2023-03-01T14:55:07.691Z,6.92
2023-03-01T14:57:35.461Z,6.92
2023-03-01T15:00:06.302Z,6.92
2023-03-01T15:02:35.070Z,7.02
2023-03-01T15:05:08.618Z,7.03
2023-03-01T15:07:41.848Z,7.06
2023-03-01T15:10:21.510Z,7.04
2023-03-01T15:12:49.825Z,6.95
2023-03-01T15:15:41.435Z,6.92
2023-03-01T15:18:18.790Z,6.95
2023-03-01T15:20:47.190Z,6.88
2023-03-01T15:23:29.452Z,6.91
2023-03-01T15:25:58.657Z,6.89
2023-03-01T15:28:28.840Z,6.95
2023-03-01T15:31:00.802Z,7.00
2023-03-01T15:33:38.879Z,6.93
2023-03-01T15:36:45.741Z,6.93
2023-03-01T15:39:38.154Z,6.95
2023-03-01T15:42:11.050Z,6.93
2023-03-01T15:44:44.029Z,6.90
2023-03-01T15:47:26.701Z,6.85
2023-03-01T15:49:56.304Z,6.83
2023-03-01T15:52:30.143Z,6.81
2023-03-01T15:55:00.891Z,6.76
2023-03-01T15:57:28.865Z,6.81
2023-03-01T15:59:56.698Z,6.85
2023-03-01T16:02:25.800Z,6.86
2023-03-01T16:04:54.671Z,6.84
2023-03-01T16:07:22.527Z,6.80
2023-03-01T16:09:50.264Z,6.80
2023-03-01T16:12:21.479Z,6.77
2023-03-01T16:14:49.846Z,6.71
2023-03-01T16:17:17.643Z,6.66
2023-03-01T16:19:45.445Z,6.64
2023-03-01T16:22:13.260Z,6.64
2023-03-01T16:24:41.887Z,6.65
2023-03-01T16:27:09.652Z,6.72
2023-03-01T16:29:38.749Z,6.67
2023-03-01T16:32:07.164Z,6.64
2023-03-01T16:34:35.033Z,6.61
2023-03-01T16:37:02.878Z,6.58
2023-03-01T16:39:30.736Z,6.58
2023-03-01T16:41:58.523Z,6.47
2023-03-01T16:44:26.247Z,6.41
2023-03-01T16:46:55.324Z,6.38
2023-03-01T16:49:23.088Z,6.34
2023-03-01T16:51:50.843Z,6.29
2023-03-01T16:54:19.070Z,6.21
2023-03-01T16:56:46.807Z,6.12
2023-03-01T16:59:15.052Z,6.10
2023-03-01T17:01:42.884Z,6.10
2023-03-01T17:04:13.962Z,6.03
2023-03-01T17:06:41.765Z,6.01
2023-03-01T17:09:10.418Z,6.04
2023-03-01T17:11:38.193Z,5.99
2023-03-01T17:14:06.082Z,5.91
2023-03-01T17:16:33.929Z,5.88
2023-03-01T17:19:01.748Z,5.85
2023-03-01T17:21:31.711Z,5.81
2023-03-01T17:24:00.371Z,5.71
2023-03-01T17:26:29.267Z,5.63
2023-03-01T17:28:57.312Z,5.60
2023-03-01T17:31:25.330Z,5.52
2023-03-01T17:33:53.127Z,5.49
2023-03-01T17:36:20.886Z,5.36
2023-03-01T17:38:50.182Z,5.21
2023-03-01T17:41:19.003Z,5.17
2023-03-01T17:43:47.008Z,5.07
2023-03-01T17:46:15.161Z,5.04
2023-03-01T17:48:42.968Z,5.01
2023-03-01T17:51:12.555Z,4.95
2023-03-01T17:53:40.353Z,4.89
2023-03-01T17:56:10.212Z,4.89
2023-03-01T17:58:39.345Z,4.84
2023-03-01T18:01:12.611Z,4.87
2023-03-01T18:03:41.094Z,4.87
2023-03-01T18:06:13.579Z,4.80
2023-03-01T18:08:41.491Z,4.79
2023-03-01T18:11:10.630Z,4.71
2023-03-01T18:13:39.844Z,4.69
2023-03-01T18:16:09.164Z,4.60
2023-03-01T18:18:37.326Z,4.53
2023-03-01T18:21:06.154Z,4.44
2023-03-01T18:23:35.759Z,4.40
2023-03-01T18:26:06.353Z,4.36
2023-03-01T18:28:35.793Z,4.27
2023-03-01T18:31:05.689Z,4.25
2023-03-01T18:33:33.827Z,4.17
2023-03-01T18:36:02.104Z,4.07
2023-03-01T18:38:30.851Z,4.03
2023-03-01T18:40:58.687Z,3.98
2023-03-01T18:43:28.859Z,3.96
2023-03-01T18:46:01.834Z,3.92
2023-03-01T18:48:30.074Z,3.90
2023-03-01T18:50:57.956Z,3.79
2023-03-01T18:53:35.853Z,3.74
2023-03-01T18:56:04.022Z,3.68
2023-03-01T18:58:31.839Z,3.69
2023-03-01T19:01:00.110Z,3.67
2023-03-01T19:03:28.821Z,3.61
2023-03-01T19:05:57.017Z,3.56
2023-03-01T19:08:24.801Z,3.56
2023-03-01T19:10:58.976Z,3.48
2023-03-01T19:13:27.377Z,3.49
2023-03-01T19:16:04.561Z,3.40
2023-03-01T19:18:32.418Z,3.38
2023-03-01T19:21:04.108Z,3.34
2023-03-01T19:23:34.927Z,3.28
2023-03-01T19:26:06.596Z,3.24
2023-03-01T19:28:36.063Z,3.17
2023-03-01T19:31:07.460Z,3.16
2023-03-01T19:33:36.461Z,3.18
2023-03-01T19:36:05.267Z,3.12
2023-03-01T19:38:33.217Z,3.14
2023-03-01T19:41:07.634Z,3.10
2023-03-01T19:43:35.495Z,3.09
2023-03-01T19:46:03.553Z,2.96
2023-03-01T19:48:31.530Z,2.92
2023-03-01T19:50:59.551Z,2.87
2023-03-01T19:53:27.653Z,2.85
2023-03-01T19:55:59.375Z,2.82
2023-03-01T19:58:29.422Z,2.76
2023-03-01T20:00:58.935Z,2.67
2023-03-01T20:03:27.342Z,2.70
2023-03-01T20:05:56.559Z,2.63
2023-03-01T20:08:24.649Z,2.62
2023-03-01T20:10:52.888Z,2.53
2023-03-01T20:13:21.622Z,2.52
2023-03-01T20:15:50.924Z,2.52
2023-03-01T20:18:18.712Z,2.54
2023-03-01T20:20:49.902Z,2.53
2023-03-01T20:23:18.184Z,2.52
2023-03-01T20:25:46.284Z,2.50
2023-03-01T20:28:14.023Z,2.55
2023-03-01T20:30:42.530Z,2.50
2023-03-01T20:33:11.935Z,2.43
2023-03-01T20:35:42.541Z,2.40
2023-03-01T20:38:10.446Z,2.39
2023-03-01T20:40:39.046Z,2.38
2023-03-01T20:43:06.848Z,2.31
2023-03-01T20:45:34.626Z,2.32
2023-03-01T20:48:02.390Z,2.31
2023-03-01T20:50:31.561Z,2.24
2023-03-01T20:52:59.282Z,2.21
2023-03-01T20:55:27.051Z,2.19
2023-03-01T20:57:54.779Z,2.19
2023-03-01T21:00:22.681Z,2.13
2023-03-01T21:02:50.453Z,2.13
2023-03-01T21:05:19.798Z,2.08
2023-03-01T21:07:48.900Z,2.03
2023-03-01T21:10:17.281Z,2.04
2023-03-01T21:12:45.161Z,2.01
2023-03-01T21:15:23.489Z,1.99
2023-03-01T21:17:55.999Z,1.93
2023-03-01T21:20:24.020Z,1.86
2023-03-01T21:22:53.210Z,1.83
2023-03-01T21:25:20.974Z,1.80
2023-03-01T21:27:48.711Z,1.73
2023-03-01T21:30:17.154Z,1.70
2023-03-01T21:32:44.929Z,1.62
2023-03-01T21:35:13.340Z,1.57
2023-03-01T21:37:41.476Z,1.47
2023-03-01T21:40:11.919Z,1.40
2023-03-01T21:42:40.569Z,1.40
2023-03-01T21:45:09.027Z,1.33
2023-03-01T21:47:36.830Z,1.27
2023-03-01T21:50:05.008Z,1.20
2023-03-01T21:52:32.756Z,1.21
2023-03-01T21:55:02.979Z,1.21
2023-03-01T21:57:32.132Z,1.22
2023-03-01T21:59:59.870Z,1.20
2023-03-01T22:02:27.680Z,1.21
2023-03-01T22:04:57.571Z,1.22
2023-03-01T22:07:25.390Z,1.22
2023-03-01T22:09:53.195Z,1.18
2023-03-01T22:12:21.017Z,1.19
2023-03-01T22:14:50.130Z,1.15
2023-03-01T22:17:18.023Z,1.13
2023-03-01T22:19:46.359Z,1.06
2023-03-01T22:22:14.065Z,1.06
2023-03-01T22:24:41.799Z,1.05
2023-03-01T22:27:09.536Z,1.07
2023-03-01T22:29:37.529Z,1.08
2023-03-01T22:32:07.008Z,1.06
2023-03-01T22:34:35.808Z,1.05
2023-03-01T22:37:03.755Z,1.04
2023-03-01T22:39:31.470Z,1.00
2023-03-01T22:41:59.211Z,1.01
2023-03-01T22:44:27.762Z,0.95
2023-03-01T22:46:55.477Z,0.97
2023-03-01T22:49:25.539Z,0.94
2023-03-01T22:51:53.353Z,0.96
2023-03-01T22:54:22.059Z,0.93
2023-03-01T22:56:50.050Z,0.93
2023-03-01T22:59:20.033Z,0.92
2023-03-01T23:01:48.457Z,0.90
2023-03-01T23:04:16.774Z,0.92
2023-03-01T23:06:51.879Z,0.91
2023-03-01T23:09:21.798Z,0.87
2023-03-01T23:11:50.630Z,0.85
2023-03-01T23:14:19.334Z,0.86
2023-03-01T23:16:47.150Z,0.80
2023-03-01T23:19:16.470Z,0.81
2023-03-01T23:21:48.563Z,0.82
2023-03-01T23:24:17.175Z,0.81
2023-03-01T23:26:45.784Z,0.84
2023-03-01T23:29:13.959Z,0.86
2023-03-01T23:31:41.784Z,0.84
2023-03-01T23:34:09.542Z,0.79
2023-03-01T23:36:44.800Z,0.84
2023-03-01T23:39:14.925Z,0.79
2023-03-01T23:41:42.907Z,0.79
2023-03-01T23:44:15.529Z,0.80
2023-03-01T23:46:44.129Z,0.77
2023-03-01T23:49:12.974Z,0.76
2023-03-01T23:51:41.740Z,0.73
2023-03-01T23:54:10.635Z,0.74
2023-03-01T23:56:41.821Z,0.67
2023-03-01T23:59:13.283Z,0.64
